Time;durP1;ratioP1;P1;durP2;ratioP2;P2;SDS_P1;SDS_P2;PMS_P1;PMS_P2;Temp;Humidity;BMP_temperature;BMP_pressure;BME280_temperature;BME280_humidity;BME280_pressure;Samples;Min_cycle;Max_cycle;Signal;HPM_P1;HPM_P2
2022/12/24 00:00:21;;;;;;;0.30;0.30;;;15.30;87.20;15.40;95799.00;;;;5078000;28;20232;-85
2022/12/24 00:02:48;;;;;;;1.23;0.33;;;15.30;87.10;15.40;95799.00;;;;5076934;28;20340;-86
2022/12/24 00:05:15;;;;;;;0.70;0.43;;;15.30;87.00;15.40;95815.00;;;;5079430;28;20230;-86
2022/12/24 00:07:43;;;;;;;0.70;0.70;;;15.30;87.00;15.40;95822.00;;;;5077154;28;20248;-88
2022/12/24 00:10:11;;;;;;;4.40;1.03;;;15.30;87.00;15.40;95826.00;;;;5079471;28;20345;-86
2022/12/24 00:12:39;;;;;;;1.80;0.50;;;15.30;87.10;15.40;95819.00;;;;5076996;28;21344;-87
2022/12/24 00:15:08;;;;;;;0.77;0.63;;;15.30;87.00;15.40;95824.00;;;;5078888;28;20223;-86
2022/12/24 00:17:36;;;;;;;0.40;0.40;;;15.30;87.00;15.40;95820.00;;;;5078635;28;20213;-87
2022/12/24 00:20:05;;;;;;;0.67;0.40;;;15.30;87.00;15.40;95814.00;;;;5079188;28;20688;-89
2022/12/24 00:22:32;;;;;;;0.60;0.50;;;15.30;86.90;15.40;95825.00;;;;5081023;28;20290;-86
2022/12/24 00:24:59;;;;;;;0.33;0.30;;;15.30;87.00;15.40;95815.00;;;;5079072;28;20257;-86
2022/12/24 00:27:26;;;;;;;0.30;0.30;;;15.30;86.80;15.40;95829.00;;;;5077585;28;20342;-86
2022/12/24 00:29:53;;;;;;;0.37;0.30;;;15.30;86.80;15.40;95829.00;;;;5078531;28;20209;-87
2022/12/24 00:32:20;;;;;;;0.20;0.20;;;15.30;86.80;15.40;95832.00;;;;5079586;28;20223;-86
2022/12/24 00:34:49;;;;;;;2.50;0.50;;;15.30;86.70;15.40;95828.00;;;;5080506;28;20334;-86
2022/12/24 00:37:16;;;;;;;0.70;0.20;;;15.30;86.70;15.40;95824.00;;;;5079478;28;20226;-88
2022/12/24 00:39:43;;;;;;;0.60;0.30;;;15.30;86.70;15.40;95834.00;;;;5079892;28;21328;-88
2022/12/24 00:42:10;;;;;;;0.37;0.37;;;15.30;86.70;15.40;95833.00;;;;5078857;28;20285;-86
2022/12/24 00:44:37;;;;;;;0.30;0.20;;;15.30;86.60;15.40;95837.00;;;;5076461;28;20196;-87
2022/12/24 00:47:04;;;;;;;0.20;0.20;;;15.30;86.40;15.40;95838.00;;;;5077452;28;20233;-87
2022/12/24 00:49:32;;;;;;;0.20;0.20;;;15.30;86.40;15.40;95836.00;;;;5078810;28;20214;-86
2022/12/24 00:52:01;;;;;;;0.43;0.30;;;15.30;86.40;15.40;95846.00;;;;5078057;28;20682;-86
2022/12/24 00:54:29;;;;;;;0.20;0.20;;;15.20;86.20;15.40;95849.00;;;;5078266;28;20199;-85
2022/12/24 00:56:56;;;;;;;0.33;0.33;;;15.30;86.30;15.30;95860.00;;;;5079140;28;20202;-88
2022/12/24 00:59:23;;;;;;;0.47;0.30;;;15.20;86.20;15.30;95856.00;;;;5076827;28;20227;-87
2022/12/24 01:01:50;;;;;;;4.63;0.43;;;15.20;86.20;15.30;95873.00;;;;5077435;28;20586;-86
2022/12/24 01:07:04;;;;;;;0.70;0.20;;;15.20;86.20;15.30;95874.00;;;;5079485;28;20218;-86
2022/12/24 01:09:31;;;;;;;1.37;0.30;;;15.20;86.20;15.30;95872.00;;;;5078989;28;20207;-87
2022/12/24 01:11:58;;;;;;;2.37;0.37;;;15.20;86.20;15.30;95875.00;;;;5077485;28;20202;-87
2022/12/24 01:14:25;;;;;;;0.30;0.30;;;15.20;86.20;15.30;95892.00;;;;5076765;28;20206;-87
2022/12/24 01:16:52;;;;;;;0.47;0.37;;;15.00;86.10;15.30;95895.00;;;;5077753;28;20192;-88
2022/12/24 01:19:19;;;;;;;0.50;0.30;;;15.20;86.10;15.20;95883.00;;;;5077147;28;20216;-87
2022/12/24 01:21:46;;;;;;;1.20;0.40;;;15.10;86.00;15.20;95891.00;;;;5077145;28;20206;-88
2022/12/24 01:24:16;;;;;;;0.50;0.40;;;15.10;85.90;15.20;95901.00;;;;5078997;28;20219;-88
2022/12/24 01:26:44;;;;;;;2.07;0.43;;;15.10;85.70;15.20;95893.00;;;;5077802;28;20756;-87
2022/12/24 01:29:11;;;;;;;0.30;0.30;;;15.10;85.70;15.20;95886.00;;;;5077164;28;20280;-87
2022/12/24 01:31:38;;;;;;;1.60;0.40;;;15.10;85.70;15.20;95891.00;;;;5076128;28;20203;-88
2022/12/24 01:34:05;;;;;;;0.70;0.63;;;15.10;85.60;15.10;95903.00;;;;5076373;28;20564;-87
2022/12/24 01:36:32;;;;;;;1.07;0.40;;;15.10;85.60;15.10;95904.00;;;;5078681;28;20409;-88
2022/12/24 01:39:00;;;;;;;0.30;0.30;;;15.00;85.50;15.10;95904.00;;;;5076420;28;20203;-87
2022/12/24 01:44:25;;;;;;;0.13;0.10;;;15.00;85.30;15.00;95913.00;;;;5076980;28;20926;-88
2022/12/24 01:46:56;;;;;;;0.60;0.40;;;15.00;85.00;15.00;95915.00;;;;5076813;28;20222;-88
2022/12/24 01:49:23;;;;;;;0.43;0.40;;;14.90;85.10;15.00;95923.00;;;;5076107;28;20208;-87
2022/12/24 01:51:58;;;;;;;0.30;0.30;;;14.90;85.10;14.90;95920.00;;;;5077343;28;20231;-87
2022/12/24 01:54:31;;;;;;;0.40;0.30;;;14.90;85.00;14.90;95925.00;;;;5078148;28;20202;-87
2022/12/24 01:57:07;;;;;;;0.90;0.30;;;14.90;85.00;14.90;95926.00;;;;5076955;28;20223;-87
2022/12/24 01:59:37;;;;;;;0.40;0.20;;;14.90;85.00;14.80;95933.00;;;;5077403;28;20190;-87
2022/12/24 02:02:05;;;;;;;2.80;0.60;;;14.80;85.00;14.80;95929.00;;;;5076947;28;20576;-86
2022/12/24 02:04:40;;;;;;;0.70;0.30;;;14.80;85.20;14.80;95925.00;;;;5075653;28;20199;-87
2022/12/24 02:07:07;;;;;;;0.80;0.30;;;14.70;85.10;14.80;95929.00;;;;5077813;28;20207;-86
2022/12/24 02:09:37;;;;;;;1.10;0.30;;;14.70;85.10;14.70;95936.00;;;;5077543;28;20195;-87
2022/12/24 02:12:07;;;;;;;0.30;0.30;;;14.70;85.10;14.70;95942.00;;;;5077150;28;20231;-88
2022/12/24 02:14:36;;;;;;;0.40;0.40;;;14.70;85.10;14.70;95932.00;;;;5077856;28;20199;-87
2022/12/24 02:17:18;;;;;;;0.60;0.50;;;14.70;85.20;14.70;95944.00;;;;5075626;28;20295;-88
2022/12/24 02:20:30;;;;;;;0.47;0.30;;;14.70;85.10;14.60;95953.00;;;;5076362;28;20197;-88
2022/12/24 02:23:47;;;;;;;0.20;0.20;;;14.70;84.90;14.60;95940.00;;;;5075259;28;20724;-87
2022/12/24 02:26:33;;;;;;;0.70;0.50;;;14.60;84.80;14.60;95953.00;;;;5075251;28;20346;-87
2022/12/24 02:29:32;;;;;;;0.80;0.47;;;14.60;85.30;14.60;95946.00;;;;5077219;28;20224;-87
2022/12/24 02:32:10;;;;;;;0.60;0.47;;;14.60;85.10;14.60;95952.00;;;;5078443;28;20195;-87
2022/12/24 02:34:44;;;;;;;0.73;0.33;;;14.60;85.50;14.60;95957.00;;;;5075367;28;20195;-87
2022/12/24 02:37:16;;;;;;;0.60;0.50;;;14.50;85.50;14.60;95956.00;;;;5077128;28;20592;-87
2022/12/24 02:39:51;;;;;;;4.97;0.50;;;14.50;85.50;14.60;95952.00;;;;5075047;28;20279;-88
2022/12/24 02:42:27;;;;;;;0.40;0.40;;;14.50;85.50;14.50;95957.00;;;;5076233;28;20218;-88
2022/12/24 02:45:01;;;;;;;0.37;0.37;;;14.50;85.40;14.50;95955.00;;;;5076068;28;20227;-88
2022/12/24 02:47:32;;;;;;;1.43;0.70;;;14.50;85.40;14.50;95961.00;;;;5074585;28;20214;-87
2022/12/24 02:50:02;;;;;;;0.37;0.33;;;14.50;85.50;14.50;95958.00;;;;5074980;28;20237;-87
2022/12/24 02:52:33;;;;;;;1.83;0.60;;;14.50;85.50;14.50;95973.00;;;;5076284;28;20750;-87
2022/12/24 02:55:06;;;;;;;2.40;0.40;;;14.60;85.60;14.50;95976.00;;;;5075628;28;20191;-88
2022/12/24 02:57:58;;;;;;;0.77;0.40;;;14.50;85.50;14.50;95987.00;;;;5076237;28;20234;-88
2022/12/24 03:00:27;;;;;;;0.63;0.50;;;14.50;85.40;14.50;95974.00;;;;5076154;28;20238;-88
2022/12/24 03:03:17;;;;;;;0.30;0.27;;;14.50;86.20;14.50;95986.00;;;;5076169;28;20330;-87
2022/12/24 03:05:51;;;;;;;0.67;0.40;;;14.50;85.30;14.50;95988.00;;;;5077264;28;20218;-88
2022/12/24 03:08:35;;;;;;;0.57;0.50;;;14.50;85.50;14.50;95984.00;;;;5077212;28;20265;-88
2022/12/24 03:11:08;;;;;;;2.20;0.70;;;14.50;85.20;14.50;95983.00;;;;5076111;28;20212;-87
2022/12/24 03:13:35;;;;;;;0.37;0.37;;;14.40;85.50;14.40;95985.00;;;;5076571;28;20276;-87
2022/12/24 03:16:06;;;;;;;0.40;0.37;;;14.40;86.30;14.50;95987.00;;;;5075604;28;20235;-88
2022/12/24 03:18:42;;;;;;;0.70;0.40;;;14.40;85.50;14.50;95985.00;;;;5076356;28;20199;-87
2022/12/24 03:21:16;;;;;;;0.37;0.37;;;14.40;86.20;14.50;96001.00;;;;5074793;28;20209;-87
2022/12/24 03:23:47;;;;;;;0.67;0.40;;;14.40;85.60;14.50;95993.00;;;;5075595;28;20255;-88
2022/12/24 03:26:19;;;;;;;1.10;0.40;;;14.40;85.50;14.50;95993.00;;;;5074363;28;20198;-88
2022/12/24 03:28:48;;;;;;;1.63;0.50;;;14.40;85.40;14.40;96010.00;;;;5075117;28;20292;-88
2022/12/24 03:31:17;;;;;;;1.60;0.33;;;14.40;85.50;14.50;96002.00;;;;5073984;28;20206;-88
2022/12/24 03:33:46;;;;;;;0.50;0.50;;;14.40;85.50;14.50;96011.00;;;;5080549;28;20219;-86
2022/12/24 03:36:14;;;;;;;3.43;0.83;;;14.40;85.50;14.50;96015.00;;;;5083188;28;20260;-86
2022/12/24 03:38:41;;;;;;;3.40;0.60;;;14.40;85.50;14.50;96026.00;;;;5077738;28;20204;-86
2022/12/24 03:41:08;;;;;;;0.87;0.50;;;14.40;85.60;14.50;96029.00;;;;5081154;28;20275;-86
2022/12/24 03:43:36;;;;;;;1.00;0.67;;;14.40;85.70;14.50;96031.00;;;;5081295;28;20222;-88
2022/12/24 03:46:07;;;;;;;0.60;0.60;;;14.40;85.60;14.50;96029.00;;;;5080369;28;20235;-88
2022/12/24 03:48:36;;;;;;;1.00;0.50;;;14.40;85.50;14.50;96037.00;;;;5084834;28;20222;-87
2022/12/24 03:51:05;;;;;;;0.90;0.30;;;14.40;85.60;14.50;96032.00;;;;5086209;28;20238;-88
2022/12/24 03:53:32;;;;;;;0.67;0.67;;;14.40;85.50;14.50;96037.00;;;;5076743;28;20289;-88
2022/12/24 03:55:59;;;;;;;0.60;0.50;;;14.40;85.50;14.50;96022.00;;;;5080158;28;20559;-87
2022/12/24 03:58:26;;;;;;;1.17;0.40;;;14.40;85.50;14.50;96026.00;;;;5078321;28;20307;-88
2022/12/24 04:00:54;;;;;;;0.40;0.37;;;14.40;85.40;14.50;96025.00;;;;5078092;28;20246;-88
2022/12/24 04:03:21;;;;;;;0.80;0.40;;;14.50;85.50;14.60;96036.00;;;;5078984;28;20227;-86
2022/12/24 04:05:48;;;;;;;0.40;0.40;;;14.50;85.30;14.60;96044.00;;;;5078726;28;20693;-88
2022/12/24 04:08:16;;;;;;;1.50;0.40;;;14.50;85.40;14.60;96052.00;;;;5080182;28;20302;-88
2022/12/24 04:10:44;;;;;;;2.63;0.80;;;14.50;85.30;14.60;96056.00;;;;5079976;28;20947;-87
2022/12/24 04:13:11;;;;;;;0.60;0.40;;;14.50;85.50;14.60;96060.00;;;;5080076;28;20224;-87
2022/12/24 04:15:38;;;;;;;1.03;0.50;;;14.60;85.40;14.60;96057.00;;;;5079696;28;20199;-88
2022/12/24 04:18:05;;;;;;;1.40;0.40;;;14.50;85.30;14.60;96066.00;;;;5078438;28;20291;-88
2022/12/24 04:20:32;;;;;;;3.23;0.50;;;14.50;85.20;14.70;96068.00;;;;5080277;28;20221;-86
2022/12/24 04:22:59;;;;;;;0.63;0.47;;;14.60;85.60;14.70;96070.00;;;;5079957;28;20255;-87
2022/12/24 04:25:27;;;;;;;0.70;0.50;;;14.60;85.10;14.70;96082.00;;;;5078893;28;20207;-86
2022/12/24 04:27:54;;;;;;;1.33;0.40;;;14.60;84.90;14.70;96083.00;;;;5078556;28;20234;-88
2022/12/24 04:30:21;;;;;;;0.83;0.40;;;14.60;85.00;14.70;96087.00;;;;5079705;28;20215;-87
2022/12/24 04:32:49;;;;;;;0.50;0.40;;;14.60;85.00;14.70;96084.00;;;;5078790;28;20283;-87
2022/12/24 04:35:16;;;;;;;1.13;0.50;;;14.60;84.80;14.70;96094.00;;;;5078138;28;20231;-87
2022/12/24 04:37:43;;;;;;;1.13;0.80;;;14.60;84.70;14.70;96103.00;;;;5079988;28;20208;-88
2022/12/24 04:40:11;;;;;;;1.23;0.47;;;14.60;84.80;14.80;96105.00;;;;5078378;28;20286;-87
2022/12/24 04:42:39;;;;;;;1.13;0.50;;;14.70;84.60;14.80;96115.00;;;;5078024;28;20273;-88
2022/12/24 04:45:08;;;;;;;0.70;0.40;;;14.70;84.40;14.80;96103.00;;;;5078416;28;21041;-87
2022/12/24 04:47:35;;;;;;;1.63;0.60;;;14.70;84.50;14.80;96104.00;;;;5078388;28;20313;-85
2022/12/24 04:50:03;;;;;;;1.10;0.70;;;14.60;84.50;14.80;96115.00;;;;5078096;28;20295;-87
2022/12/24 04:52:30;;;;;;;0.60;0.40;;;14.70;85.30;14.80;96121.00;;;;5078193;28;21126;-88
2022/12/24 04:54:57;;;;;;;1.53;0.67;;;14.70;84.60;14.80;96128.00;;;;5078007;28;20192;-88
2022/12/24 04:57:24;;;;;;;1.03;0.67;;;14.70;84.60;14.80;96131.00;;;;5078180;28;20200;-87
2022/12/24 04:59:52;;;;;;;1.30;0.30;;;14.70;84.70;14.80;96121.00;;;;5079033;28;20261;-87
2022/12/24 05:02:19;;;;;;;0.50;0.30;;;14.70;85.00;14.70;96124.00;;;;5078511;28;20347;-87
2022/12/24 05:04:47;;;;;;;2.20;0.43;;;14.60;84.10;14.70;96145.00;;;;5076813;28;20214;-86
2022/12/24 05:07:14;;;;;;;1.10;0.57;;;14.60;84.10;14.70;96154.00;;;;5076601;28;20235;-87
2022/12/24 05:09:41;;;;;;;0.80;0.40;;;14.60;84.10;14.60;96162.00;;;;5078252;28;20738;-88
2022/12/24 05:12:08;;;;;;;0.97;0.40;;;14.50;84.00;14.60;96148.00;;;;5077645;28;20578;-87
2022/12/24 05:14:35;;;;;;;2.20;0.43;;;14.50;84.10;14.50;96152.00;;;;5078480;28;20209;-87
2022/12/24 05:17:04;;;;;;;1.00;0.43;;;14.50;84.10;14.50;96146.00;;;;5078011;28;20215;-88
2022/12/24 05:19:31;;;;;;;0.77;0.40;;;14.50;84.20;14.40;96141.00;;;;5079770;28;20227;-87
2022/12/24 05:27:36;;;;;;;0.80;0.50;;;14.30;84.30;14.30;96129.00;;;;5076199;28;20234;-87
2022/12/24 05:30:05;;;;;;;0.97;0.37;;;14.30;84.40;14.30;96128.00;;;;5079533;28;20206;-87
2022/12/24 05:32:33;;;;;;;2.00;0.50;;;14.20;84.30;14.20;96127.00;;;;5079335;28;20785;-88
2022/12/24 05:35:00;;;;;;;2.00;0.40;;;14.20;84.30;14.20;96127.00;;;;5075923;28;20295;-87
2022/12/24 05:37:27;;;;;;;2.30;0.50;;;14.20;84.50;14.20;96134.00;;;;5078014;28;20295;-88
2022/12/24 05:39:55;;;;;;;2.10;0.60;;;14.20;84.60;14.20;96152.00;;;;5076491;28;21095;-86
2022/12/24 05:42:22;;;;;;;1.07;0.40;;;14.10;84.80;14.20;96167.00;;;;5077418;28;20223;-88
2022/12/24 05:44:49;;;;;;;1.93;0.50;;;14.10;84.80;14.10;96186.00;;;;5077730;28;20287;-88
2022/12/24 05:47:16;;;;;;;0.97;0.50;;;14.10;85.00;14.10;96186.00;;;;5076714;28;20199;-87
2022/12/24 05:49:44;;;;;;;3.40;0.70;;;14.10;85.80;14.00;96190.00;;;;5078899;28;20207;-87
2022/12/24 05:52:11;;;;;;;1.20;0.60;;;14.10;85.20;14.00;96174.00;;;;5077203;28;20206;-88
2022/12/24 05:54:38;;;;;;;4.37;0.93;;;14.00;85.00;13.90;96169.00;;;;5077414;28;20300;-88
2022/12/24 05:57:06;;;;;;;3.17;0.67;;;13.90;84.70;13.80;96173.00;;;;5076108;28;20619;-88
2022/12/24 05:59:34;;;;;;;2.17;0.50;;;13.90;84.60;13.70;96178.00;;;;5077464;28;20203;-87
2022/12/24 06:02:01;;;;;;;0.90;0.80;;;13.80;84.40;13.70;96166.00;;;;5076734;28;20226;-87
2022/12/24 06:04:28;;;;;;;3.60;0.60;;;13.80;84.40;13.60;96164.00;;;;5076815;28;20282;-86
2022/12/24 06:06:57;;;;;;;1.73;0.43;;;13.70;84.40;13.50;96164.00;;;;5077079;28;20238;-88
2022/12/24 06:09:24;;;;;;;0.97;0.50;;;13.70;84.50;13.50;96170.00;;;;5078706;28;20295;-88
2022/12/24 06:11:51;;;;;;;0.80;0.50;;;13.60;84.70;13.40;96175.00;;;;5078970;28;20291;-88
2022/12/24 06:14:18;;;;;;;2.87;0.70;;;13.60;84.70;13.40;96180.00;;;;5077865;28;20267;-87
2022/12/24 06:16:45;;;;;;;0.90;0.50;;;13.50;84.70;13.40;96185.00;;;;5076182;28;20210;-88
2022/12/24 06:19:12;;;;;;;1.30;0.60;;;13.50;84.80;13.30;96185.00;;;;5076691;28;20231;-87
2022/12/24 06:21:39;;;;;;;2.70;0.53;;;13.40;84.80;13.30;96177.00;;;;5076793;28;20282;-85
2022/12/24 06:24:08;;;;;;;2.17;0.53;;;13.40;85.60;13.30;96177.00;;;;5076150;28;20390;-87
2022/12/24 06:26:35;;;;;;;1.87;0.60;;;13.40;85.10;13.30;96180.00;;;;5076875;28;20244;-88
2022/12/24 06:29:02;;;;;;;0.93;0.40;;;13.40;85.20;13.30;96163.00;;;;5077369;28;20302;-88
2022/12/24 06:31:30;;;;;;;0.60;0.40;;;13.30;85.10;13.30;96164.00;;;;5077285;28;20205;-88
2022/12/24 06:33:57;;;;;;;0.83;0.40;;;13.30;85.10;13.20;96166.00;;;;5075298;28;20222;-87
2022/12/24 06:36:26;;;;;;;1.10;0.40;;;13.30;85.30;13.30;96173.00;;;;5077001;28;20206;-88
2022/12/24 06:38:54;;;;;;;1.63;0.60;;;13.30;85.30;13.20;96181.00;;;;5074795;28;20214;-86
2022/12/24 06:41:23;;;;;;;2.13;0.40;;;13.30;85.40;13.20;96183.00;;;;5075654;28;20294;-87
2022/12/24 06:43:52;;;;;;;1.70;0.40;;;13.30;85.50;13.30;96191.00;;;;5077081;28;20223;-86
2022/12/24 06:46:21;;;;;;;1.43;0.43;;;13.30;85.60;13.30;96192.00;;;;5076973;28;20261;-86
2022/12/24 06:48:49;;;;;;;10.70;1.00;;;13.30;85.60;13.30;96201.00;;;;5076827;28;20605;-88
2022/12/24 06:51:19;;;;;;;0.40;0.40;;;13.30;85.70;13.30;96205.00;;;;5075421;28;20674;-88
2022/12/24 06:53:47;;;;;;;1.03;0.50;;;13.30;85.70;13.30;96204.00;;;;5075113;28;20215;-87
2022/12/24 06:56:15;;;;;;;0.80;0.70;;;13.30;85.60;13.30;96203.00;;;;5076223;28;20750;-87
2022/12/24 06:58:44;;;;;;;1.37;0.37;;;13.30;85.50;13.30;96208.00;;;;5077219;28;20738;-88
2022/12/24 07:01:14;;;;;;;0.80;0.63;;;13.30;85.60;13.30;96219.00;;;;5073957;28;20199;-87
2022/12/24 07:03:42;;;;;;;0.90;0.73;;;13.30;85.60;13.30;96230.00;;;;5076870;28;20266;-87
2022/12/24 07:06:17;;;;;;;3.40;0.90;;;13.30;85.50;13.30;96221.00;;;;5074773;28;20226;-87
2022/12/24 07:08:44;;;;;;;3.67;0.90;;;13.30;85.60;13.40;96223.00;;;;5075586;28;20302;-88
2022/12/24 07:11:11;;;;;;;3.33;0.90;;;13.30;85.70;13.40;96219.00;;;;5075329;28;20209;-85
2022/12/24 07:13:38;;;;;;;2.90;0.97;;;13.30;85.80;13.40;96220.00;;;;5077846;28;20211;-88
2022/12/24 07:16:08;;;;;;;2.53;0.70;;;13.30;85.80;13.40;96228.00;;;;5080109;28;20242;-86
2022/12/24 07:18:35;;;;;;;1.73;0.60;;;13.30;85.90;13.40;96228.00;;;;5079486;28;20198;-87
2022/12/24 07:21:04;;;;;;;1.10;0.73;;;13.30;85.80;13.40;96228.00;;;;5079998;28;20310;-87
2022/12/24 07:23:31;;;;;;;1.50;0.80;;;13.30;85.70;13.40;96231.00;;;;5079706;28;20217;-87
2022/12/24 07:26:01;;;;;;;4.23;0.70;;;13.30;85.60;13.40;96237.00;;;;5078686;28;20199;-88
2022/12/24 07:28:29;;;;;;;3.57;0.60;;;13.30;85.50;13.40;96241.00;;;;5080651;28;20249;-87
2022/12/24 07:30:57;;;;;;;1.27;0.80;;;13.30;85.60;13.40;96252.00;;;;5077878;28;20282;-90
2022/12/24 07:33:26;;;;;;;1.73;0.57;;;13.30;85.50;13.40;96255.00;;;;5082023;28;20252;-91
2022/12/24 07:36:01;;;;;;;4.87;0.90;;;13.30;85.60;13.50;96259.00;;;;5080079;28;20285;-89
2022/12/24 07:38:29;;;;;;;2.37;0.90;;;13.40;85.70;13.50;96263.00;;;;5082630;28;20242;-90
2022/12/24 07:40:56;;;;;;;2.93;1.10;;;13.30;86.30;13.50;96265.00;;;;5084478;28;20196;-89
2022/12/24 07:43:24;;;;;;;1.20;1.10;;;13.30;85.90;13.50;96265.00;;;;5085768;28;20344;-89
2022/12/24 07:45:54;;;;;;;1.17;0.90;;;13.30;85.50;13.60;96269.00;;;;5085708;28;20235;-89
2022/12/24 07:48:22;;;;;;;0.97;0.73;;;13.30;85.40;13.60;96279.00;;;;5084583;28;20286;-89
2022/12/24 07:50:51;;;;;;;1.13;0.70;;;13.30;85.40;13.60;96283.00;;;;5078611;28;20278;-90
2022/12/24 07:53:19;;;;;;;6.70;1.17;;;13.30;85.30;13.60;96285.00;;;;5081331;28;20247;-89
2022/12/24 07:55:46;;;;;;;1.80;1.00;;;13.30;85.30;13.60;96283.00;;;;5080595;28;20275;-89
2022/12/24 07:58:13;;;;;;;1.47;1.23;;;13.30;85.30;13.60;96291.00;;;;5079626;28;20218;-88
2022/12/24 08:00:40;;;;;;;5.20;1.60;;;13.40;85.30;13.60;96283.00;;;;5079741;28;20234;-89
2022/12/24 08:03:07;;;;;;;2.00;1.40;;;13.30;85.30;13.60;96295.00;;;;5079950;28;20253;-89
2022/12/24 08:05:37;;;;;;;5.57;1.60;;;13.30;86.10;13.60;96291.00;;;;5078428;28;20239;-89
2022/12/24 08:08:05;;;;;;;6.53;1.27;;;13.30;85.50;13.60;96298.00;;;;5076386;28;20231;-89
2022/12/24 08:10:32;;;;;;;2.60;1.13;;;13.30;85.60;13.70;96312.00;;;;5078436;28;20282;-90
2022/12/24 08:12:59;;;;;;;3.13;1.87;;;13.30;85.70;13.70;96307.00;;;;5078353;28;20315;-89
2022/12/24 08:15:26;;;;;;;7.83;4.37;;;13.40;85.90;13.70;96310.00;;;;5079374;28;20274;-91
2022/12/24 08:17:54;;;;;;;11.50;4.63;;;13.40;86.10;13.70;96318.00;;;;5080906;28;20238;-91
2022/12/24 08:20:21;;;;;;;5.10;2.60;;;13.40;86.00;13.80;96320.00;;;;5080136;28;20259;-91
2022/12/24 08:22:48;;;;;;;5.17;2.60;;;13.50;86.10;13.80;96307.00;;;;5079773;28;20211;-90
2022/12/24 08:25:16;;;;;;;6.93;2.47;;;13.50;86.20;13.80;96310.00;;;;5079238;28;20295;-92
2022/12/24 08:27:44;;;;;;;5.00;2.10;;;13.50;86.30;13.90;96319.00;;;;5077890;28;20228;-92
2022/12/24 08:30:13;;;;;;;3.70;1.80;;;13.60;86.40;13.90;96328.00;;;;5076475;28;20259;-91
2022/12/24 08:32:40;;;;;;;2.03;1.53;;;13.60;86.30;13.90;96333.00;;;;5077943;28;20277;-90
2022/12/24 08:35:08;;;;;;;3.17;1.37;;;13.60;86.30;13.90;96338.00;;;;5077103;28;20207;-91
2022/12/24 08:37:35;;;;;;;3.97;1.13;;;13.60;87.00;14.00;96337.00;;;;5079106;28;20359;-90
2022/12/24 08:40:02;;;;;;;1.00;0.70;;;13.70;86.20;14.00;96339.00;;;;5078092;28;20208;-91
2022/12/24 08:42:30;;;;;;;5.80;1.70;;;13.70;86.20;14.00;96342.00;;;;5075500;28;20637;-90
2022/12/24 08:44:57;;;;;;;1.87;1.30;;;13.70;86.10;14.00;96340.00;;;;5077613;28;20655;-91
2022/12/24 08:47:25;;;;;;;3.70;1.80;;;13.80;86.10;14.00;96339.00;;;;5077150;28;20232;-91
2022/12/24 08:49:52;;;;;;;2.43;1.43;;;13.80;86.10;14.10;96335.00;;;;5079237;28;20308;-91
2022/12/24 08:52:19;;;;;;;1.10;0.70;;;13.80;86.10;14.10;96350.00;;;;5080254;28;20315;-92
2022/12/24 08:54:46;;;;;;;1.47;0.90;;;13.90;86.10;14.10;96345.00;;;;5078431;28;20242;-91
2022/12/24 08:57:13;;;;;;;2.77;0.70;;;13.90;85.80;14.20;96347.00;;;;5081601;28;20204;-92
2022/12/24 08:59:42;;;;;;;1.97;0.77;;;13.90;85.80;14.20;96351.00;;;;5087171;28;20291;-91
2022/12/24 09:02:09;;;;;;;0.83;0.67;;;13.90;85.70;14.20;96354.00;;;;5078911;28;20218;-90
2022/12/24 09:04:39;;;;;;;0.60;0.50;;;14.00;85.70;14.20;96357.00;;;;5077076;28;20200;-91
2022/12/24 09:07:07;;;;;;;1.70;0.90;;;14.00;85.50;14.30;96354.00;;;;5080659;28;20669;-93
2022/12/24 09:09:34;;;;;;;1.30;0.70;;;14.10;85.70;14.30;96354.00;;;;5074301;28;20289;-91
2022/12/24 09:12:02;;;;;;;1.37;0.70;;;14.10;85.40;14.30;96368.00;;;;5075905;28;20286;-91
2022/12/24 09:14:29;;;;;;;4.20;0.80;;;14.10;85.50;14.40;96358.00;;;;5076841;28;20196;-90
2022/12/24 09:16:58;;;;;;;2.07;1.00;;;14.20;85.60;14.40;96369.00;;;;5077845;28;20203;-91
2022/12/24 09:19:25;;;;;;;1.13;0.60;;;14.20;85.40;14.40;96375.00;;;;5079346;28;20219;-90
2022/12/24 09:21:52;;;;;;;4.90;0.80;;;14.20;85.00;14.50;96378.00;;;;5078260;28;20200;-92
2022/12/24 09:24:19;;;;;;;1.00;0.60;;;14.30;85.10;14.50;96387.00;;;;5079297;28;20222;-91
2022/12/24 09:26:48;;;;;;;2.57;0.80;;;14.30;85.00;14.50;96389.00;;;;5077551;28;20230;-91
2022/12/24 09:29:16;;;;;;;2.40;0.90;;;14.30;84.70;14.60;96391.00;;;;5080735;28;20247;-92
2022/12/24 09:31:43;;;;;;;1.73;0.80;;;14.30;84.90;14.60;96402.00;;;;5081792;28;20283;-92
2022/12/24 09:34:12;;;;;;;2.33;0.80;;;14.40;84.90;14.60;96402.00;;;;5084161;28;20223;-92
2022/12/24 09:36:39;;;;;;;0.50;0.50;;;14.40;84.70;14.70;96394.00;;;;5084804;28;20207;-93
2022/12/24 09:39:06;;;;;;;1.63;0.63;;;14.40;84.40;14.70;96412.00;;;;5081755;28;20849;-92
2022/12/24 09:41:51;;;;;;;0.87;0.50;;;14.40;84.20;14.70;96399.00;;;;5081785;28;20204;-93
2022/12/24 09:44:35;;;;;;;0.83;0.73;;;14.50;84.00;14.80;96404.00;;;;5079527;28;20301;-92
2022/12/24 09:47:16;;;;;;;2.27;0.50;;;14.50;83.90;14.80;96393.00;;;;5078801;28;20195;-93
2022/12/24 09:49:52;;;;;;;0.87;0.60;;;14.50;84.00;14.80;96398.00;;;;5082127;28;20226;-93
2022/12/24 09:52:29;;;;;;;1.60;0.77;;;14.60;83.70;14.80;96388.00;;;;5078227;28;20254;-92
2022/12/24 09:55:07;;;;;;;1.17;0.67;;;14.60;83.40;14.80;96403.00;;;;5079917;28;20272;-92
2022/12/24 09:57:41;;;;;;;2.37;0.97;;;14.60;83.00;14.80;96397.00;;;;5081791;28;20380;-93
2022/12/24 10:00:20;;;;;;;2.43;0.80;;;14.60;83.00;14.80;96398.00;;;;5080383;28;20225;-91
2022/12/24 10:02:47;;;;;;;1.47;0.47;;;14.70;82.30;14.90;96396.00;;;;5083258;28;20223;-91
2022/12/24 10:05:33;;;;;;;0.60;0.53;;;14.70;83.10;14.90;96395.00;;;;5073101;28;20204;-92
2022/12/24 10:08:14;;;;;;;0.70;0.57;;;14.70;82.40;14.90;96403.00;;;;5079513;28;20242;-92
2022/12/24 10:10:53;;;;;;;2.00;0.60;;;14.70;82.20;14.90;96399.00;;;;5076922;28;20230;-92
2022/12/24 10:13:44;;;;;;;0.93;0.50;;;14.70;82.10;14.90;96400.00;;;;5079561;28;20818;-90
2022/12/24 10:16:22;;;;;;;4.43;0.40;;;14.70;82.60;14.90;96405.00;;;;5079737;28;20196;-93
2022/12/24 10:19:02;;;;;;;1.30;0.70;;;14.80;82.20;14.90;96413.00;;;;5077397;28;20195;-92
2022/12/24 10:21:49;;;;;;;1.23;0.60;;;14.80;82.00;15.00;96418.00;;;;5080912;28;20207;-93
2022/12/24 10:24:24;;;;;;;1.07;0.87;;;14.80;81.50;15.00;96414.00;;;;5076448;28;20262;-91
2022/12/24 10:26:57;;;;;;;3.13;1.13;;;14.80;82.20;15.10;96407.00;;;;5077940;28;20219;-91
2022/12/24 10:29:32;;;;;;;3.43;1.27;;;14.90;82.70;15.20;96419.00;;;;5077665;28;20223;-89
2022/12/24 10:32:16;;;;;;;1.07;0.70;;;14.90;82.90;15.20;96428.00;;;;5080361;28;20259;-92
2022/12/24 10:34:48;;;;;;;0.73;0.50;;;15.00;82.60;15.30;96434.00;;;;5082787;28;20227;-93
2022/12/24 10:37:23;;;;;;;4.23;1.13;;;15.10;82.70;15.40;96432.00;;;;5078378;28;20290;-94
2022/12/24 10:39:51;;;;;;;0.50;0.50;;;15.10;82.00;15.40;96441.00;;;;5080640;28;20222;-91
2022/12/24 10:42:21;;;;;;;0.70;0.50;;;15.20;81.90;15.40;96429.00;;;;5078938;28;20227;-91
2022/12/24 10:44:55;;;;;;;0.70;0.60;;;15.20;81.20;15.40;96422.00;;;;5079069;28;20294;-93
2022/12/24 10:47:24;;;;;;;0.30;0.30;;;15.20;80.50;15.30;96431.00;;;;5078570;28;20276;-92
2022/12/24 10:50:01;;;;;;;0.63;0.60;;;15.30;80.70;15.30;96425.00;;;;5079660;28;20224;-92
2022/12/24 10:52:37;;;;;;;2.27;0.40;;;15.20;79.30;15.30;96433.00;;;;5081023;28;20258;-91
2022/12/24 10:55:13;;;;;;;1.37;0.70;;;15.20;79.40;15.20;96430.00;;;;5082447;28;20550;-93
2022/12/24 10:57:41;;;;;;;1.10;0.67;;;15.20;79.60;15.20;96437.00;;;;5081935;28;20724;-93
2022/12/24 11:00:20;;;;;;;0.60;0.53;;;15.20;79.40;15.20;96434.00;;;;5074821;28;20835;-92
2022/12/24 11:02:49;;;;;;;1.20;0.80;;;15.20;78.60;15.20;96436.00;;;;5080735;28;20294;-92
2022/12/24 11:05:31;;;;;;;0.47;0.30;;;15.10;79.30;15.20;96434.00;;;;5088568;28;20210;-93
2022/12/24 11:08:05;;;;;;;2.10;0.90;;;15.10;78.20;15.20;96425.00;;;;5079476;28;20824;-90
2022/12/24 11:10:36;;;;;;;1.23;0.47;;;15.10;78.70;15.10;96429.00;;;;5073372;28;20654;-89
2022/12/24 11:13:04;;;;;;;1.63;0.50;;;15.10;78.70;15.10;96424.00;;;;5074935;28;20302;-92
2022/12/24 11:15:34;;;;;;;3.07;0.70;;;15.10;79.00;15.10;96426.00;;;;5075578;28;20246;-92
2022/12/24 11:18:12;;;;;;;0.50;0.30;;;15.10;79.20;15.10;96423.00;;;;5078806;28;20191;-92